Time;durP1;ratioP1;P1;durP2;ratioP2;P2;SDS_P1;SDS_P2;PMS_P1;PMS_P2;Temp;Humidity;BMP_temperature;BMP_pressure;BME280_temperature;BME280_humidity;BME280_pressure;Samples;Min_cycle;Max_cycle;Signal;HPM_P1;HPM_P2
2022/12/29 00:01:40;;;;;;;16.80;10.57;;;;;;;1.64;72.17;100352.13;1852877;77;22686;-77
2022/12/29 00:04:09;;;;;;;16.57;10.20;;;;;;;1.65;71.75;100346.42;1832506;77;21000;-78
2022/12/29 00:06:35;;;;;;;20.65;12.45;;;;;;;1.64;71.78;100353.45;1800806;77;21343;-77
2022/12/29 00:09:02;;;;;;;49.88;29.12;;;;;;;1.68;71.71;100349.69;1829414;77;21569;-77
2022/12/29 00:11:28;;;;;;;25.65;14.73;;;;;;;1.68;71.57;100354.93;1833636;77;21469;-77
2022/12/29 00:16:44;;;;;;;17.90;9.90;;;;;;;1.71;70.83;100359.13;1846154;77;20930;-77
2022/12/29 00:35:52;;;;;;;21.35;11.00;;;;;;;1.71;70.27;100340.31;1772676;78;21575;-77
2022/12/29 00:44:04;;;;;;;31.33;13.65;;;;;;;1.75;69.92;100335.25;1807066;78;21049;-72
2022/12/29 00:46:32;;;;;;;13.93;9.10;;;;;;;1.69;69.86;100322.55;1822723;78;21478;-73
2022/12/29 00:51:45;;;;;;;29.67;19.92;;;;;;;1.75;69.47;100325.25;1809946;78;21044;-72
2022/12/29 00:54:12;;;;;;;18.07;11.90;;;;;;;1.76;69.50;100315.98;1822131;78;21080;-73
2022/12/29 00:56:40;;;;;;;20.97;10.85;;;;;;;1.76;69.33;100309.44;1824238;78;21508;-74
2022/12/29 00:59:11;;;;;;;15.43;8.33;;;;;;;1.80;69.34;100310.53;1814332;78;21263;-76
2022/12/29 01:01:38;;;;;;;14.55;8.43;;;;;;;1.74;69.25;100311.31;1811244;78;21029;-75
2022/12/29 01:04:05;;;;;;;24.98;15.60;;;;;;;1.81;69.30;100309.61;1813859;78;21013;-76
2022/12/29 01:06:33;;;;;;;19.80;11.35;;;;;;;1.74;69.15;100309.17;1823249;78;20985;-76
2022/12/29 01:11:46;;;;;;;15.28;7.58;;;;;;;1.76;68.70;100315.16;1840592;77;21508;-75
2022/12/29 01:14:13;;;;;;;14.95;9.75;;;;;;;1.82;68.70;100311.30;1843176;77;21017;-75
2022/12/29 01:16:39;;;;;;;15.80;9.53;;;;;;;1.78;68.48;100306.73;1849127;77;21025;-73
2022/12/29 01:19:06;;;;;;;18.12;9.10;;;;;;;1.80;68.30;100306.16;1847763;77;21002;-74
2022/12/29 01:21:32;;;;;;;14.18;8.88;;;;;;;1.81;68.04;100288.65;1847514;77;21034;-74
2022/12/29 01:23:59;;;;;;;13.58;7.40;;;;;;;1.85;67.94;100296.20;1849342;77;21557;-75
2022/12/29 01:26:25;;;;;;;10.63;6.45;;;;;;;1.85;67.87;100292.27;1848460;77;21071;-76
2022/12/29 01:28:52;;;;;;;9.40;6.97;;;;;;;1.88;67.85;100305.67;1822611;77;21064;-76
2022/12/29 01:31:18;;;;;;;12.45;8.28;;;;;;;1.87;67.66;100282.53;1841719;77;21493;-76
2022/12/29 01:33:45;;;;;;;12.95;7.47;;;;;;;1.88;67.77;100275.53;1848601;77;21490;-75
2022/12/29 01:36:14;;;;;;;13.03;7.40;;;;;;;1.84;67.90;100264.41;1840818;77;21140;-74
2022/12/29 01:38:41;;;;;;;11.68;7.12;;;;;;;1.81;68.04;100278.17;1830376;76;21059;-76
2022/12/29 01:41:09;;;;;;;9.58;6.80;;;;;;;1.80;68.00;100278.65;1833940;76;21058;-75
2022/12/29 01:43:48;;;;;;;9.90;5.83;;;;;;;1.83;68.16;100269.74;1831154;78;21079;-74
2022/12/29 01:46:32;;;;;;;12.85;7.55;;;;;;;1.76;67.93;100270.63;1830088;78;21000;-76
2022/12/29 01:49:18;;;;;;;12.58;7.03;;;;;;;1.75;68.11;100283.33;1826974;78;21185;-74
2022/12/29 01:51:52;;;;;;;13.10;7.10;;;;;;;1.69;68.26;100260.98;1818726;78;20977;-74
2022/12/29 01:54:33;;;;;;;10.32;6.33;;;;;;;1.68;68.36;100264.56;1837778;78;21036;-76
2022/12/29 01:57:02;;;;;;;11.85;6.67;;;;;;;1.66;67.92;100246.80;1844116;77;21593;-77
2022/12/29 01:59:32;;;;;;;11.60;6.10;;;;;;;1.62;68.31;100251.00;1821810;77;21519;-75
2022/12/29 02:01:59;;;;;;;9.83;6.37;;;;;;;1.59;68.36;100259.91;1836849;77;21107;-75
2022/12/29 02:04:26;;;;;;;11.33;6.78;;;;;;;1.58;68.20;100237.27;1835074;77;21017;-73
2022/12/29 02:07:01;;;;;;;9.55;5.62;;;;;;;1.54;68.39;100254.94;1846043;77;21541;-73
2022/12/29 02:09:27;;;;;;;10.80;6.45;;;;;;;1.57;68.27;100240.83;1847323;77;21017;-75
2022/12/29 02:11:54;;;;;;;8.58;5.83;;;;;;;1.51;68.45;100254.33;1844025;77;21031;-75
2022/12/29 02:14:20;;;;;;;10.60;6.22;;;;;;;1.52;68.26;100262.53;1847631;77;21110;-74
2022/12/29 02:17:16;;;;;;;9.18;5.72;;;;;;;1.47;68.46;100261.97;1846945;77;20978;-74
2022/12/29 02:20:14;;;;;;;10.18;6.08;;;;;;;1.46;68.33;100254.59;1821655;78;21049;-71
2022/12/29 02:23:14;;;;;;;12.60;6.37;;;;;;;1.43;68.47;100241.72;1787210;78;21546;-73
2022/12/29 02:26:20;;;;;;;9.40;6.53;;;;;;;1.43;68.55;100240.86;1824866;78;21033;-74
2022/12/29 02:29:07;;;;;;;11.28;6.22;;;;;;;1.36;68.97;100229.47;1823926;78;21230;-74
2022/12/29 02:31:48;;;;;;;11.88;5.60;;;;;;;1.34;68.94;100243.13;1821672;78;21219;-74
2022/12/29 02:34:46;;;;;;;10.58;6.83;;;;;;;1.33;69.13;100232.30;1823746;78;20998;-75
2022/12/29 02:37:36;;;;;;;10.38;6.53;;;;;;;1.31;69.18;100222.39;1824132;78;21112;-74
2022/12/29 02:40:52;;;;;;;7.95;5.75;;;;;;;1.27;69.41;100230.05;1824023;78;21073;-73
2022/12/29 02:43:33;;;;;;;9.93;5.90;;;;;;;1.28;69.57;100238.28;1817141;78;21124;-71
2022/12/29 02:46:04;;;;;;;9.40;5.65;;;;;;;1.26;69.52;100228.86;1827121;78;21006;-71
2022/12/29 02:48:40;;;;;;;8.15;5.85;;;;;;;1.21;69.74;100226.51;1801215;78;21636;-71
2022/12/29 02:51:14;;;;;;;11.28;6.28;;;;;;;1.25;69.74;100220.14;1806289;78;21068;-74
2022/12/29 02:56:27;;;;;;;9.30;6.92;;;;;;;1.18;70.15;100214.94;1808082;78;21091;-74
2022/12/29 02:58:54;;;;;;;8.85;6.60;;;;;;;1.17;70.30;100205.39;1801663;78;21013;-72
2022/12/29 03:02:16;;;;;;;14.45;6.42;;;;;;;1.14;70.38;100195.11;1823124;78;21029;-74
2022/12/29 03:04:43;;;;;;;8.03;5.67;;;;;;;1.14;70.40;100205.58;1812243;78;21008;-72
2022/12/29 03:07:36;;;;;;;8.45;5.50;;;;;;;1.11;70.65;100214.47;1814438;78;21068;-72
2022/12/29 03:10:26;;;;;;;8.03;5.55;;;;;;;1.10;70.80;100193.63;1799015;78;21403;-73
2022/12/29 03:16:41;;;;;;;10.23;6.50;;;;;;;1.03;71.29;100197.58;1839065;77;21029;-73
2022/12/29 03:19:15;;;;;;;7.47;5.12;;;;;;;1.03;71.37;100184.50;1843024;77;20986;-73
2022/12/29 03:24:38;;;;;;;9.30;6.40;;;;;;;0.98;71.37;100196.09;1836188;77;21088;-73
2022/12/29 03:27:06;;;;;;;15.03;6.80;;;;;;;0.92;71.69;100171.60;1819594;77;21029;-73
2022/12/29 03:29:39;;;;;;;11.35;7.70;;;;;;;0.91;71.81;100175.64;1842634;77;20982;-72
2022/12/29 03:32:07;;;;;;;10.32;5.58;;;;;;;0.90;71.97;100165.63;1843747;77;20990;-74
2022/12/29 03:34:34;;;;;;;9.43;6.50;;;;;;;0.84;72.28;100175.17;1810424;78;21481;-74
2022/12/29 03:37:08;;;;;;;9.78;6.65;;;;;;;0.87;72.41;100167.59;1823629;78;21188;-75
2022/12/29 03:39:35;;;;;;;13.65;7.80;;;;;;;0.79;72.57;100175.91;1775298;78;21021;-76
2022/12/29 03:42:05;;;;;;;12.18;7.80;;;;;;;0.81;72.58;100170.59;1833066;78;21056;-74
2022/12/29 03:44:37;;;;;;;11.12;6.75;;;;;;;0.76;72.69;100173.50;1810670;78;21071;-73
2022/12/29 03:47:04;;;;;;;9.58;6.75;;;;;;;0.78;72.71;100175.08;1812694;78;21084;-75
2022/12/29 03:49:31;;;;;;;9.98;6.85;;;;;;;0.75;72.80;100182.27;1833012;78;21124;-73
2022/12/29 03:51:59;;;;;;;14.90;7.58;;;;;;;0.76;72.93;100174.34;1824939;78;21500;-72
2022/12/29 03:54:26;;;;;;;11.12;7.05;;;;;;;0.76;73.04;100170.89;1816287;78;21010;-72
2022/12/29 03:56:52;;;;;;;11.90;7.30;;;;;;;0.80;72.87;100170.23;1817396;78;21072;-72
2022/12/29 03:59:21;;;;;;;12.80;7.67;;;;;;;0.77;72.85;100168.19;1804585;78;21525;-72
2022/12/29 04:01:48;;;;;;;10.20;6.67;;;;;;;0.82;72.92;100171.81;1823489;78;21239;-72
2022/12/29 04:04:15;;;;;;;10.48;6.58;;;;;;;0.79;73.01;100165.45;1814005;79;21104;-72
2022/12/29 04:06:42;;;;;;;11.70;7.10;;;;;;;0.81;72.98;100162.27;1816085;78;21060;-72
2022/12/29 04:09:10;;;;;;;12.18;7.37;;;;;;;0.80;72.89;100167.62;1818117;78;20993;-73
2022/12/29 04:11:39;;;;;;;9.45;6.55;;;;;;;0.80;72.95;100163.70;1816357;78;20988;-71
2022/12/29 04:14:05;;;;;;;9.23;6.30;;;;;;;0.74;72.98;100180.61;1788433;79;21251;-72
2022/12/29 04:16:40;;;;;;;9.75;6.28;;;;;;;0.75;73.11;100163.96;1795468;78;21585;-73
2022/12/29 04:19:07;;;;;;;10.03;6.33;;;;;;;0.68;73.27;100161.38;1807153;79;21033;-73
2022/12/29 04:21:34;;;;;;;11.45;6.50;;;;;;;0.67;73.44;100171.45;1815938;79;21001;-72
2022/12/29 04:24:01;;;;;;;12.23;8.55;;;;;;;0.63;73.49;100176.50;1816613;79;21478;-73
2022/12/29 04:26:28;;;;;;;13.60;8.03;;;;;;;0.66;73.70;100175.84;1817642;79;21136;-72
2022/12/29 04:28:56;;;;;;;13.15;8.33;;;;;;;0.58;73.86;100179.41;1814373;79;21029;-72
2022/12/29 04:31:41;;;;;;;10.75;6.97;;;;;;;0.57;73.91;100185.08;1800603;79;21540;-72
2022/12/29 04:34:08;;;;;;;10.47;7.00;;;;;;;0.53;73.99;100190.13;1815010;79;21081;-72
2022/12/29 04:36:36;;;;;;;12.13;6.90;;;;;;;0.53;74.18;100170.99;1817416;79;21005;-73
2022/12/29 04:39:05;;;;;;;10.95;7.28;;;;;;;0.54;74.32;100170.91;1806117;79;21232;-74
2022/12/29 04:41:32;;;;;;;12.07;7.37;;;;;;;0.52;74.29;100161.01;1815162;77;21078;-73
2022/12/29 04:43:58;;;;;;;9.88;6.35;;;;;;;0.50;74.52;100169.86;1811731;78;21008;-72
2022/12/29 04:46:29;;;;;;;13.65;7.80;;;;;;;0.52;74.46;100162.77;1797484;78;21171;-73
2022/12/29 04:49:00;;;;;;;10.80;6.92;;;;;;;0.56;74.33;100161.19;1825088;78;21013;-71
2022/12/29 04:51:40;;;;;;;11.53;7.00;;;;;;;0.54;74.39;100156.52;1794823;78;21155;-73
2022/12/29 04:54:09;;;;;;;12.37;7.15;;;;;;;0.59;74.23;100159.67;1832213;77;20962;-73
2022/12/29 04:56:36;;;;;;;12.03;7.28;;;;;;;0.59;74.28;100157.53;1802003;78;21051;-72
2022/12/29 04:59:02;;;;;;;9.80;6.70;;;;;;;0.55;74.37;100167.34;1792013;79;21084;-72
2022/12/29 05:01:29;;;;;;;12.45;7.37;;;;;;;0.56;74.39;100165.55;1828200;75;21001;-74
2022/12/29 05:03:55;;;;;;;13.55;8.18;;;;;;;0.50;74.56;100162.87;1876005;75;21216;-73
2022/12/29 05:06:22;;;;;;;11.87;7.17;;;;;;;0.49;74.48;100181.27;1856769;77;20988;-73
2022/12/29 05:08:49;;;;;;;11.70;7.53;;;;;;;0.53;74.43;100161.84;1856971;77;20978;-75
2022/12/29 05:11:17;;;;;;;10.85;7.37;;;;;;;0.50;74.57;100151.56;1856908;77;21478;-74
2022/12/29 05:13:46;;;;;;;10.75;7.22;;;;;;;0.47;74.74;100147.37;1847345;77;21044;-72
2022/12/29 05:16:14;;;;;;;10.00;7.10;;;;;;;0.44;74.83;100143.62;1840604;77;21252;-74
2022/12/29 05:18:40;;;;;;;12.78;7.37;;;;;;;0.41;74.91;100133.38;1840710;75;21042;-73
2022/12/29 05:21:09;;;;;;;11.15;7.75;;;;;;;0.40;75.01;100144.74;1833019;77;21021;-75
2022/12/29 05:23:40;;;;;;;10.75;7.58;;;;;;;0.40;74.84;100147.36;1849380;76;21039;-76
2022/12/29 05:26:06;;;;;;;9.80;6.58;;;;;;;0.36;74.89;100144.09;1795919;78;21177;-73
2022/12/29 05:28:47;;;;;;;14.38;8.10;;;;;;;0.33;75.25;100156.05;1820211;77;21173;-75
2022/12/29 05:31:16;;;;;;;12.73;8.50;;;;;;;0.37;75.20;100160.63;1821047;78;21005;-73
2022/12/29 05:33:43;;;;;;;13.83;7.65;;;;;;;0.36;74.87;100165.00;1821019;78;21037;-75
2022/12/29 05:36:10;;;;;;;13.03;7.65;;;;;;;0.38;75.03;100154.45;1780999;78;20985;-72
2022/12/29 05:38:38;;;;;;;12.37;7.12;;;;;;;0.35;75.18;100158.58;1826851;78;21586;-75
2022/12/29 05:41:05;;;;;;;15.18;8.45;;;;;;;0.35;74.95;100171.64;1824157;77;21128;-75
2022/12/29 05:43:42;;;;;;;14.55;7.72;;;;;;;0.37;74.86;100154.92;1728044;82;21096;-74
2022/12/29 05:46:22;;;;;;;12.18;8.08;;;;;;;0.43;74.85;100141.13;1762633;78;21045;-75
2022/12/29 05:48:59;;;;;;;13.88;8.23;;;;;;;0.41;74.73;100150.36;1827066;77;21044;-75
2022/12/29 05:51:31;;;;;;;13.35;7.75;;;;;;;0.44;74.80;100142.31;1830999;78;21028;-77
2022/12/29 05:53:58;;;;;;;13.88;8.63;;;;;;;0.44;74.71;100150.16;1824796;77;21430;-75
2022/12/29 05:56:26;;;;;;;12.58;8.28;;;;;;;0.47;74.38;100149.98;1828047;78;21579;-75
2022/12/29 05:58:54;;;;;;;10.45;7.37;;;;;;;0.47;74.59;100157.83;1825316;78;21481;-74
2022/12/29 06:01:21;;;;;;;12.58;7.42;;;;;;;0.51;74.36;100149.33;1826217;76;21035;-74
2022/12/29 06:03:49;;;;;;;12.28;8.20;;;;;;;0.48;74.52;100142.50;1798464;78;21052;-74
2022/12/29 06:06:17;;;;;;;13.48;7.03;;;;;;;0.53;74.47;100127.85;1825235;77;21116;-73
2022/12/29 06:08:44;;;;;;;11.78;8.13;;;;;;;0.50;74.39;100127.59;1827690;77;21024;-73
2022/12/29 06:11:11;;;;;;;12.27;8.03;;;;;;;0.53;74.34;100137.00;1831935;77;21001;-74
2022/12/29 06:13:39;;;;;;;14.10;7.97;;;;;;;0.50;74.38;100145.89;1835635;77;21080;-75
2022/12/29 06:16:07;;;;;;;14.47;7.95;;;;;;;0.54;74.33;100157.83;1804041;78;21005;-75
2022/12/29 06:18:33;;;;;;;16.02;9.15;;;;;;;0.56;74.29;100140.27;1833603;77;21211;-75
2022/12/29 06:21:01;;;;;;;13.95;8.83;;;;;;;0.53;74.28;100149.60;1832367;77;21005;-74
2022/12/29 06:23:28;;;;;;;13.85;8.78;;;;;;;0.55;74.28;100163.42;1838362;77;21614;-75
2022/12/29 06:25:55;;;;;;;13.60;9.38;;;;;;;0.55;74.29;100154.74;1830235;77;21037;-74
2022/12/29 06:28:21;;;;;;;18.52;10.05;;;;;;;0.59;74.06;100162.30;1808473;77;21076;-74
2022/12/29 06:30:48;;;;;;;15.40;9.23;;;;;;;0.54;74.35;100161.75;1815010;77;21219;-76
2022/12/29 06:33:15;;;;;;;12.13;9.53;;;;;;;0.59;74.45;100160.98;1820998;77;21049;-73
2022/12/29 06:35:45;;;;;;;14.90;9.68;;;;;;;0.58;74.43;100167.16;1812886;77;21002;-75
2022/12/29 06:38:12;;;;;;;19.70;10.53;;;;;;;0.62;74.41;100156.50;1821411;77;21085;-74
2022/12/29 06:40:39;;;;;;;17.25;9.30;;;;;;;0.65;74.25;100165.47;1826213;77;21048;-76
2022/12/29 06:43:11;;;;;;;19.00;10.30;;;;;;;0.63;74.21;100163.42;1815629;77;21122;-73
2022/12/29 06:45:45;;;;;;;17.67;10.00;;;;;;;0.67;74.11;100170.14;1806580;77;21040;-73
2022/12/29 06:48:11;;;;;;;15.65;9.23;;;;;;;0.69;73.84;100163.04;1804164;77;21548;-75
2022/12/29 06:50:38;;;;;;;17.20;9.98;;;;;;;0.70;73.77;100177.81;1827557;77;21469;-74
2022/12/29 06:53:04;;;;;;;16.55;10.93;;;;;;;0.70;73.87;100165.56;1823990;78;21017;-74
2022/12/29 06:55:32;;;;;;;13.78;9.78;;;;;;;0.75;73.77;100170.50;1822000;77;21037;-74
2022/12/29 06:58:01;;;;;;;15.95;10.48;;;;;;;0.73;73.71;100171.06;1824234;77;21012;-75
2022/12/29 07:00:27;;;;;;;17.35;10.68;;;;;;;0.76;73.86;100173.03;1817328;77;21056;-75
2022/12/29 07:02:57;;;;;;;16.97;10.82;;;;;;;0.75;73.86;100183.14;1826319;77;21061;-75
2022/12/29 07:18:13;;;;;;;17.10;11.13;;;;;;;1.79;71.31;100167.41;1763480;80;24578;-68
2022/12/29 07:20:40;;;;;;;17.12;11.78;;;;;;;1.69;70.62;100168.48;1768577;81;21071;-68
2022/12/29 07:23:07;;;;;;;21.15;13.60;;;;;;;1.53;70.95;100172.58;1768579;81;21149;-68
2022/12/29 07:25:35;;;;;;;21.17;13.32;;;;;;;1.18;72.19;100162.13;1768554;81;21000;-68
2022/12/29 07:28:03;;;;;;;16.23;11.97;;;;;;;1.18;72.19;100162.13;1768635;81;20974;-68
2022/12/29 07:30:30;;;;;;;21.17;14.10;;;;;;;1.15;72.22;100172.77;1768535;81;21015;-67
2022/12/29 07:32:57;;;;;;;26.17;15.28;;;;;;;1.11;72.57;100174.38;1768635;81;21091;-67
2022/12/29 07:35:23;;;;;;;20.08;13.08;;;;;;;1.07;72.80;100168.98;1768625;81;21295;-67
2022/12/29 07:37:50;;;;;;;17.80;13.35;;;;;;;1.04;72.85;100165.23;1768439;81;20957;-67
2022/12/29 07:40:17;;;;;;;18.02;13.45;;;;;;;1.06;72.79;100156.81;1768775;81;21533;-66
2022/12/29 07:42:44;;;;;;;21.12;13.45;;;;;;;1.04;73.11;100157.38;1768458;81;21028;-67
2022/12/29 07:45:11;;;;;;;19.62;12.18;;;;;;;1.07;72.93;100174.21;1768514;81;21055;-67
2022/12/29 07:47:55;;;;;;;14.28;11.03;;;;;;;1.06;72.78;100147.66;1744798;81;21801;-67
2022/12/29 07:50:21;;;;;;;17.00;11.80;;;;;;;1.07;72.87;100158.03;1768500;81;21088;-67
2022/12/29 07:52:48;;;;;;;18.17;11.53;;;;;;;1.09;72.86;100160.08;1768517;81;21029;-69
2022/12/29 07:55:16;;;;;;;19.07;11.75;;;;;;;1.10;72.83;100152.62;1768573;81;21071;-67
2022/12/29 07:57:42;;;;;;;16.70;11.53;;;;;;;1.12;72.92;100159.90;1768505;81;21068;-67
2022/12/29 08:00:10;;;;;;;18.23;10.60;;;;;;;1.15;73.01;100143.16;1768490;81;21098;-67
2022/12/29 08:02:39;;;;;;;16.80;10.88;;;;;;;1.18;72.83;100142.97;1768370;81;20996;-67
2022/12/29 08:05:07;;;;;;;16.42;10.98;;;;;;;1.17;72.84;100156.50;1768665;81;21025;-66
2022/12/29 08:07:34;;;;;;;15.55;10.15;;;;;;;1.21;72.92;100161.08;1738029;82;21032;-68
2022/12/29 08:10:01;;;;;;;16.50;11.57;;;;;;;1.21;72.79;100148.47;1737987;82;21036;-67
2022/12/29 08:12:27;;;;;;;16.67;10.63;;;;;;;1.25;72.80;100144.71;1738027;82;21903;-68
2022/12/29 08:14:54;;;;;;;14.75;11.35;;;;;;;1.24;72.64;100149.11;1737851;82;21036;-67
2022/12/29 08:17:20;;;;;;;18.05;14.03;;;;;;;1.29;72.65;100149.64;1732469;81;21033;-67
2022/12/29 08:19:47;;;;;;;23.50;16.12;;;;;;;1.34;72.50;100154.59;1727025;83;21021;-66
2022/12/29 08:22:14;;;;;;;25.17;18.00;;;;;;;1.34;72.53;100150.19;1726976;83;21029;-68
2022/12/29 08:24:41;;;;;;;27.15;19.52;;;;;;;1.40;72.46;100147.65;1726984;83;21152;-67
2022/12/29 08:27:07;;;;;;;23.90;15.78;;;;;;;1.43;72.68;100134.81;1726942;83;20986;-67
2022/12/29 08:29:35;;;;;;;22.17;16.65;;;;;;;1.47;72.10;100156.80;1727027;83;21127;-66
2022/12/29 08:32:01;;;;;;;22.00;14.20;;;;;;;1.53;72.04;100144.60;1727054;83;20990;-68
2022/12/29 08:34:28;;;;;;;28.50;15.65;;;;;;;1.55;71.90;100151.06;1727006;83;21564;-68
2022/12/29 08:36:54;;;;;;;20.35;14.35;;;;;;;1.59;71.72;100171.34;1727083;83;21755;-66
2022/12/29 08:39:21;;;;;;;23.60;14.35;;;;;;;1.68;71.79;100167.66;1727057;83;20985;-68
2022/12/29 08:41:47;;;;;;;27.75;17.23;;;;;;;1.71;71.57;100167.43;1727009;83;21045;-67
2022/12/29 08:44:13;;;;;;;24.80;15.75;;;;;;;1.82;71.73;100160.66;1727042;83;21033;-68
2022/12/29 08:46:40;;;;;;;22.95;14.83;;;;;;;1.82;71.73;100160.66;1726955;83;21068;-67
2022/12/29 08:49:06;;;;;;;22.82;14.43;;;;;;;1.88;71.47;100175.97;1727041;83;21146;-67
2022/12/29 08:51:33;;;;;;;25.45;13.43;;;;;;;1.93;71.48;100160.77;1726893;82;21084;-67
2022/12/29 08:54:00;;;;;;;19.60;12.68;;;;;;;1.98;70.99;100170.95;1727090;83;21019;-66
2022/12/29 08:56:27;;;;;;;20.97;13.00;;;;;;;2.01;70.56;100163.73;1727108;83;21002;-67
2022/12/29 08:58:54;;;;;;;23.92;13.65;;;;;;;2.05;70.84;100161.72;1696681;83;21112;-66
2022/12/29 09:01:22;;;;;;;18.62;12.15;;;;;;;2.09;70.57;100152.25;1726932;83;22070;-67
2022/12/29 09:03:48;;;;;;;22.10;13.32;;;;;;;2.13;70.08;100155.03;1726819;82;21080;-67
2022/12/29 09:06:16;;;;;;;21.65;13.15;;;;;;;2.18;70.18;100132.91;1726980;83;21072;-68
2022/12/29 09:09:04;;;;;;;18.25;11.15;;;;;;;2.21;70.45;100138.78;1726989;83;21555;-68
2022/12/29 09:11:31;;;;;;;18.25;11.38;;;;;;;2.28;69.73;100142.67;1640893;87;21066;-67
2022/12/29 09:13:58;;;;;;;17.40;12.03;;;;;;;2.31;69.76;100135.05;1640904;87;21252;-67
2022/12/29 09:16:25;;;;;;;17.48;10.82;;;;;;;2.33;69.62;100138.41;1641089;87;21549;-68
2022/12/29 09:18:51;;;;;;;17.98;12.10;;;;;;;2.35;69.67;100135.21;1640914;87;21081;-67
2022/12/29 09:21:17;;;;;;;18.27;11.40;;;;;;;2.39;69.57;100137.16;1640957;87;21132;-68
2022/12/29 09:23:44;;;;;;;19.57;11.28;;;;;;;2.41;69.16;100130.84;1640824;87;21108;-67
2022/12/29 09:26:11;;;;;;;18.82;11.93;;;;;;;2.44;69.24;100124.57;1640953;87;21863;-66
2022/12/29 09:28:37;;;;;;;19.75;12.03;;;;;;;2.47;69.28;100119.09;1640722;87;21561;-66
2022/12/29 09:31:04;;;;;;;18.57;11.70;;;;;;;2.50;69.24;100117.09;1640930;87;21085;-68
2022/12/29 09:33:33;;;;;;;19.40;13.88;;;;;;;2.55;68.66;100110.24;1627189;88;21049;-66
2022/12/29 09:35:59;;;;;;;19.45;14.20;;;;;;;2.59;68.80;100100.34;1608545;87;21088;-68
2022/12/29 09:38:26;;;;;;;22.07;14.38;;;;;;;2.64;68.81;100108.73;1641114;87;21581;-69
2022/12/29 09:41:03;;;;;;;21.82;16.02;;;;;;;2.65;68.42;100106.50;1641008;87;21029;-69
2022/12/29 09:44:05;;;;;;;22.17;13.95;;;;;;;2.67;68.23;100107.22;1627129;88;21132;-69
2022/12/29 09:46:44;;;;;;;21.90;12.20;;;;;;;2.64;67.85;100095.63;1607330;88;21557;-71
2022/12/29 09:49:22;;;;;;;18.27;12.15;;;;;;;2.64;67.85;100095.63;1640887;87;21157;-68
2022/12/29 09:51:53;;;;;;;21.70;14.05;;;;;;;2.65;67.96;100101.25;1627307;88;21106;-70
2022/12/29 09:54:48;;;;;;;19.55;13.13;;;;;;;2.66;67.73;100079.30;1607513;89;21113;-70
2022/12/29 09:57:28;;;;;;;24.02;13.58;;;;;;;2.66;67.73;100079.30;1641375;86;21124;-69
2022/12/29 10:00:06;;;;;;;20.48;14.35;;;;;;;2.67;68.11;100088.86;1661238;86;21069;-70
2022/12/29 10:02:43;;;;;;;28.25;14.38;;;;;;;2.67;68.15;100070.02;1663389;86;21549;-69
2022/12/29 10:05:21;;;;;;;23.32;13.83;;;;;;;2.67;68.15;100070.02;1663890;86;21081;-69
2022/12/29 10:08:32;;;;;;;20.95;14.05;;;;;;;2.72;67.94;100065.73;1663507;86;21097;-68
2022/12/29 10:11:18;;;;;;;18.95;13.43;;;;;;;2.73;67.79;100059.56;1680537;83;21106;-69
2022/12/29 10:14:10;;;;;;;20.85;12.05;;;;;;;2.72;67.76;100051.31;1688318;85;21050;-69
2022/12/29 10:17:17;;;;;;;20.40;13.25;;;;;;;2.72;67.76;100051.31;1687958;84;21089;-71
2022/12/29 10:20:07;;;;;;;19.48;12.43;;;;;;;2.78;68.00;100037.74;1688237;84;22008;-70
2022/12/29 10:23:21;;;;;;;21.93;14.47;;;;;;;2.79;67.71;100043.37;1688270;84;21065;-70
2022/12/29 10:25:48;;;;;;;17.87;13.50;;;;;;;2.84;67.79;100039.95;1688255;85;21061;-70
2022/12/29 10:28:20;;;;;;;16.17;11.75;;;;;;;2.86;67.50;100038.05;1688386;85;21021;-70
2022/12/29 10:30:48;;;;;;;19.27;13.08;;;;;;;2.86;67.50;100038.05;1688426;85;21026;-70
2022/12/29 10:33:23;;;;;;;19.95;13.40;;;;;;;2.87;67.70;100036.25;1688349;85;21216;-70
2022/12/29 10:35:50;;;;;;;19.75;12.88;;;;;;;2.92;67.79;100028.89;1688575;84;21100;-70
2022/12/29 10:38:35;;;;;;;21.23;14.07;;;;;;;2.97;67.82;100046.92;1688326;85;21623;-69
2022/12/29 10:41:22;;;;;;;27.25;17.67;;;;;;;3.00;67.88;100034.89;1688026;85;21090;-71
2022/12/29 10:43:51;;;;;;;23.10;15.32;;;;;;;3.05;67.64;100025.73;1688388;85;21137;-69
2022/12/29 10:46:29;;;;;;;22.70;15.32;;;;;;;3.10;67.67;100047.70;1688580;85;21165;-70
2022/12/29 10:48:56;;;;;;;21.90;13.55;;;;;;;3.14;67.64;100034.70;1687742;84;21090;-70
2022/12/29 10:51:29;;;;;;;20.52;14.23;;;;;;;3.22;67.65;100040.22;1688245;85;21144;-70
2022/12/29 10:54:15;;;;;;;22.07;13.25;;;;;;;3.22;67.65;100033.66;1688250;85;21022;-70
2022/12/29 10:56:46;;;;;;;19.37;12.23;;;;;;;3.18;67.42;100026.96;1688258;85;21097;-70
2022/12/29 10:59:30;;;;;;;18.95;12.55;;;;;;;3.17;67.78;100013.48;1688406;85;21101;-71
2022/12/29 11:02:02;;;;;;;;;;;;;;;3.13;67.94;100019.44;1691034;85;21524;-70
2022/12/29 11:05:08;;;;;;;21.40;12.35;;;;;;;3.09;68.04;100015.37;1688320;85;20216;-70
2022/12/29 11:07:35;;;;;;;21.55;13.25;;;;;;;3.01;68.21;100005.06;1688179;85;21105;-70
2022/12/29 11:10:39;;;;;;;18.12;13.05;;;;;;;3.01;68.21;100005.06;1688238;83;21200;-69
2022/12/29 11:13:21;;;;;;;19.98;12.88;;;;;;;3.03;68.59;100012.34;1691777;84;21127;-70
2022/12/29 11:15:50;;;;;;;22.10;13.88;;;;;;;2.97;68.48;100006.23;1691527;84;21026;-70
2022/12/29 11:18:21;;;;;;;21.85;12.68;;;;;;;2.86;68.82;100010.50;1688374;84;21105;-70
2022/12/29 11:20:49;;;;;;;20.97;13.53;;;;;;;2.86;68.82;100010.50;1688223;85;21058;-69
2022/12/29 11:23:40;;;;;;;20.65;13.70;;;;;;;2.88;68.83;100029.59;1688635;85;21065;-70
2022/12/29 11:26:20;;;;;;;22.30;14.50;;;;;;;2.86;69.08;100022.30;1676580;84;21218;-69
2022/12/29 11:28:51;;;;;;;21.57;14.30;;;;;;;2.89;69.37;100028.62;1688166;85;21604;-70
2022/12/29 11:31:18;;;;;;;17.80;12.40;;;;;;;2.95;68.97;100030.83;1681073;84;21053;-69
2022/12/29 11:33:44;;;;;;;20.40;12.85;;;;;;;2.95;68.97;100030.83;1688301;85;21082;-70
2022/12/29 11:36:16;;;;;;;18.30;12.23;;;;;;;2.97;68.82;100026.75;1688352;85;21505;-69
2022/12/29 11:38:52;;;;;;;17.73;12.82;;;;;;;2.97;68.84;100037.73;1688302;85;21171;-69
2022/12/29 11:41:25;;;;;;;20.10;13.93;;;;;;;2.95;68.99;100041.77;1688334;85;21062;-68
2022/12/29 11:43:52;;;;;;;19.85;12.33;;;;;;;2.91;69.25;100036.39;1688474;85;21074;-69
2022/12/29 11:46:33;;;;;;;17.40;12.10;;;;;;;2.91;69.32;100035.08;1688495;85;21031;-69
2022/12/29 11:49:00;;;;;;;19.02;13.75;;;;;;;2.91;69.32;100037.70;1688398;85;21054;-69
2022/12/29 11:51:30;;;;;;;26.65;14.20;;;;;;;2.87;68.96;100031.84;1688857;84;21136;-68
2022/12/29 11:53:59;;;;;;;21.30;13.72;;;;;;;2.83;69.65;100039.57;1693455;84;21056;-69
2022/12/29 11:56:40;;;;;;;21.37;13.90;;;;;;;2.83;69.65;100039.57;1693449;84;21505;-69
2022/12/29 11:59:38;;;;;;;18.98;12.82;;;;;;;2.85;69.61;100035.53;1693410;84;21014;-69
2022/12/29 12:02:41;;;;;;;22.07;14.05;;;;;;;2.82;69.57;100033.98;1693380;84;21042;-70
2022/12/29 12:05:34;;;;;;;21.85;14.73;;;;;;;2.82;69.57;100033.98;1692041;84;21151;-70
2022/12/29 12:08:49;;;;;;;21.65;15.08;;;;;;;2.81;69.90;100046.72;1688419;85;21505;-68
2022/12/29 12:11:20;;;;;;;20.10;14.87;;;;;;;2.80;69.94;100043.75;1681824;83;21067;-69
2022/12/29 12:14:27;;;;;;;23.52;15.53;;;;;;;2.78;69.95;100044.30;1676300;85;21034;-70
2022/12/29 12:17:18;;;;;;;23.77;14.98;;;;;;;2.78;69.95;100044.30;1675600;85;21117;-69
2022/12/29 12:19:49;;;;;;;19.62;14.85;;;;;;;2.75;70.31;100033.56;1675879;85;21147;-69
2022/12/29 12:22:29;;;;;;;23.38;14.40;;;;;;;2.72;70.35;100042.12;1675808;85;21035;-68
2022/12/29 12:25:05;;;;;;;25.25;14.95;;;;;;;2.72;70.33;100035.56;1675870;85;21094;-70
2022/12/29 12:27:40;;;;;;;22.67;15.25;;;;;;;2.71;70.62;100046.55;1675969;85;21091;-70
2022/12/29 12:30:21;;;;;;;23.90;15.80;;;;;;;2.72;70.52;100031.19;1675074;85;21086;-69
2022/12/29 12:32:56;;;;;;;23.15;15.10;;;;;;;2.75;70.41;100029.63;1651896;85;21148;-69
2022/12/29 12:35:40;;;;;;;20.82;13.48;;;;;;;2.75;70.49;100042.75;1675916;85;21563;-69
2022/12/29 12:38:21;;;;;;;22.17;14.93;;;;;;;2.75;70.49;100042.75;1675293;85;21482;-70
2022/12/29 12:41:11;;;;;;;23.95;15.20;;;;;;;2.75;70.43;100019.13;1674806;85;21098;-69